Time;durP1;ratioP1;P1;durP2;ratioP2;P2;SDS_P1;SDS_P2;PMS_P1;PMS_P2;Temp;Humidity;BMP_temperature;BMP_pressure;BME280_temperature;BME280_humidity;BME280_pressure;Samples;Min_cycle;Max_cycle;Signal;HPM_P1;HPM_P2
2021/07/11 00:01:04;;;;;;;1.97;1.77;;;21.20;99.90;;;;;;5034916;28;20652;-58
2021/07/11 00:03:29;;;;;;;1.70;1.60;;;21.20;99.90;;;;;;5036261;28;20179;-60
2021/07/11 00:05:55;;;;;;;1.70;1.60;;;21.20;99.90;;;;;;5036180;28;20176;-57
2021/07/11 00:08:20;;;;;;;3.80;1.80;;;21.20;99.90;;;;;;5035290;28;20222;-58
2021/07/11 00:10:47;;;;;;;1.90;1.57;;;21.10;99.90;;;;;;5036016;28;20266;-61
2021/07/11 00:13:12;;;;;;;1.67;1.57;;;20.90;99.90;;;;;;5036081;28;20254;-55
2021/07/11 00:15:38;;;;;;;4.57;2.10;;;20.80;99.90;;;;;;5035893;28;20229;-55
2021/07/11 00:18:03;;;;;;;2.30;2.10;;;19.90;99.90;;;;;;5036057;28;20196;-59
2021/07/11 00:20:29;;;;;;;2.10;1.90;;;19.80;99.90;;;;;;5035951;28;20164;-60
2021/07/11 00:22:56;;;;;;;1.83;1.73;;;19.70;99.90;;;;;;5035849;28;20207;-58
2021/07/11 00:25:22;;;;;;;3.83;2.03;;;19.80;99.90;;;;;;5036008;28;20207;-58
2021/07/11 00:27:48;;;;;;;2.50;2.30;;;19.80;99.90;;;;;;5036030;28;20211;-59
2021/07/11 00:30:16;;;;;;;2.40;1.90;;;19.80;99.90;;;;;;5035037;28;20639;-61
2021/07/11 00:32:43;;;;;;;2.23;1.80;;;19.80;99.90;;;;;;5032548;28;20630;-52
2021/07/11 00:35:09;;;;;;;2.47;2.27;;;19.90;99.90;;;;;;5035431;28;20624;-61
2021/07/11 00:37:35;;;;;;;2.33;2.10;;;19.80;99.90;;;;;;5035189;28;20207;-56
2021/07/11 00:40:02;;;;;;;2.23;2.07;;;19.70;99.90;;;;;;5035408;28;20168;-61
2021/07/11 00:42:28;;;;;;;3.20;2.13;;;19.60;99.90;;;;;;5035228;28;20176;-58
2021/07/11 00:44:53;;;;;;;2.23;1.90;;;19.60;99.90;;;;;;5035411;28;20268;-56
2021/07/11 00:47:19;;;;;;;5.13;1.90;;;19.70;99.90;;;;;;5035179;28;20262;-59
2021/07/11 00:49:46;;;;;;;3.30;2.00;;;19.80;99.90;;;;;;5035623;28;20176;-61
2021/07/11 00:52:13;;;;;;;2.10;1.70;;;19.90;99.90;;;;;;5035491;28;20183;-61
2021/07/11 00:54:38;;;;;;;3.10;2.10;;;20.00;99.90;;;;;;5035594;28;20616;-56
2021/07/11 00:57:05;;;;;;;2.20;2.00;;;20.10;99.90;;;;;;5035458;28;20210;-59
2021/07/11 00:59:32;;;;;;;2.17;2.07;;;20.00;99.90;;;;;;5035234;28;20168;-59
2021/07/11 01:02:09;;;;;;;1.73;1.63;;;20.10;99.90;;;;;;5035102;28;20215;-61
2021/07/11 01:04:58;;;;;;;2.10;1.90;;;20.30;99.90;;;;;;5035391;28;20198;-61
2021/07/11 01:07:51;;;;;;;2.00;1.90;;;20.20;99.90;;;;;;5035403;28;20192;-61
2021/07/11 01:10:34;;;;;;;1.83;1.73;;;20.30;99.90;;;;;;5023863;28;20207;-57
2021/07/11 01:13:02;;;;;;;2.07;1.93;;;20.40;99.90;;;;;;5035283;28;20233;-62
2021/07/11 01:15:29;;;;;;;3.33;2.00;;;20.50;99.90;;;;;;5034956;28;20168;-59
2021/07/11 01:18:02;;;;;;;2.00;1.80;;;20.40;99.90;;;;;;5034877;28;20679;-56
2021/07/11 01:20:48;;;;;;;2.20;2.00;;;20.40;99.90;;;;;;5035035;28;20255;-61
2021/07/11 01:23:22;;;;;;;2.10;2.00;;;20.40;99.90;;;;;;5033685;28;20191;-55
2021/07/11 01:25:50;;;;;;;2.30;2.20;;;20.40;99.90;;;;;;5035166;28;20174;-55
2021/07/11 01:28:19;;;;;;;2.03;1.83;;;20.50;99.90;;;;;;5035125;28;20238;-57
2021/07/11 01:30:47;;;;;;;2.77;2.00;;;20.70;99.90;;;;;;5035334;28;20176;-58
2021/07/11 01:33:15;;;;;;;2.17;2.07;;;20.70;99.90;;;;;;5034551;28;20241;-61
2021/07/11 01:35:43;;;;;;;2.50;2.30;;;20.80;99.90;;;;;;5034697;28;20195;-61
2021/07/11 01:38:09;;;;;;;3.90;2.53;;;20.70;99.90;;;;;;5034770;28;20191;-59
2021/07/11 01:40:35;;;;;;;3.90;2.40;;;20.50;99.90;;;;;;5035026;28;20203;-61
2021/07/11 01:43:02;;;;;;;2.93;2.67;;;20.00;99.90;;;;;;5034419;28;20161;-56
2021/07/11 01:45:29;;;;;;;2.90;2.23;;;19.50;99.90;;;;;;5034258;28;20179;-59
2021/07/11 01:47:55;;;;;;;2.90;2.37;;;19.20;99.90;;;;;;5031409;28;20602;-58
2021/07/11 01:50:22;;;;;;;2.53;2.33;;;19.00;99.90;;;;;;5033841;28;20176;-58
2021/07/11 01:52:49;;;;;;;2.80;2.60;;;19.00;99.90;;;;;;5033611;28;20179;-55
2021/07/11 01:55:16;;;;;;;2.30;2.20;;;19.00;99.90;;;;;;5028612;28;20603;-56
2021/07/11 01:57:42;;;;;;;4.13;2.33;;;19.10;99.90;;;;;;5033633;28;20210;-60
2021/07/11 02:00:10;;;;;;;3.97;2.57;;;19.20;99.90;;;;;;5033637;28;20164;-58
2021/07/11 02:02:36;;;;;;;2.43;2.33;;;19.10;99.90;;;;;;5014462;28;20165;-60
2021/07/11 02:05:12;;;;;;;3.40;3.00;;;19.10;99.90;;;;;;5013834;28;20525;-61
2021/07/11 02:07:38;;;;;;;3.20;2.90;;;19.00;99.90;;;;;;5014307;28;20193;-61
2021/07/11 02:10:09;;;;;;;5.23;2.73;;;18.90;99.90;;;;;;5014339;28;20196;-53
2021/07/11 02:12:57;;;;;;;3.20;3.00;;;18.90;99.90;;;;;;5014123;28;20161;-52
2021/07/11 02:15:29;;;;;;;3.50;3.20;;;18.90;99.90;;;;;;5014652;28;20256;-61
2021/07/11 02:17:57;;;;;;;4.23;3.83;;;18.80;99.90;;;;;;5014791;28;20211;-52
2021/07/11 02:20:23;;;;;;;3.90;3.50;;;18.80;99.90;;;;;;5014750;28;20180;-55
2021/07/11 02:22:50;;;;;;;3.90;3.50;;;18.80;99.90;;;;;;5014583;28;20214;-57
2021/07/11 02:25:18;;;;;;;4.03;3.70;;;18.60;99.90;;;;;;5014568;28;20175;-59
2021/07/11 02:27:46;;;;;;;3.73;3.43;;;18.60;99.90;;;;;;5014370;28;20684;-57
2021/07/11 02:30:23;;;;;;;4.50;3.90;;;18.50;99.90;;;;;;5014568;28;20177;-52
2021/07/11 02:32:50;;;;;;;5.17;4.43;;;18.50;99.90;;;;;;5014508;28;20208;-56
2021/07/11 02:35:17;;;;;;;5.30;4.10;;;18.40;99.90;;;;;;5014711;28;20194;-58
2021/07/11 02:37:48;;;;;;;4.70;4.00;;;18.40;99.90;;;;;;5015054;28;20283;-60
2021/07/11 02:40:14;;;;;;;7.47;3.90;;;18.30;99.90;;;;;;5014216;28;20173;-58
2021/07/11 02:42:40;;;;;;;4.30;3.90;;;19.00;99.90;;;;;;5014087;28;20265;-57
2021/07/11 02:45:07;;;;;;;6.27;4.50;;;18.20;99.90;;;;;;5014356;28;20711;-52
2021/07/11 02:47:37;;;;;;;4.13;3.73;;;18.30;99.90;;;;;;5013778;28;20203;-53
2021/07/11 02:50:05;;;;;;;5.77;4.30;;;18.30;99.90;;;;;;5028806;28;20175;-62
2021/07/11 02:52:31;;;;;;;6.13;4.00;;;18.40;99.90;;;;;;5032840;28;20207;-59
2021/07/11 02:55:04;;;;;;;4.13;3.80;;;18.50;99.90;;;;;;5033158;28;20225;-63
2021/07/11 02:57:31;;;;;;;5.07;4.07;;;18.70;99.90;;;;;;5032928;28;20200;-63
2021/07/11 02:59:58;;;;;;;4.00;3.60;;;19.30;99.90;;;;;;5030425;28;20301;-61
2021/07/11 03:02:27;;;;;;;3.40;3.10;;;18.70;99.90;;;;;;5032816;28;20628;-56
2021/07/11 03:04:53;;;;;;;3.90;3.50;;;18.70;99.90;;;;;;5033225;28;20259;-63
2021/07/11 03:07:19;;;;;;;4.20;3.80;;;18.80;99.90;;;;;;5033430;28;20192;-60
2021/07/11 03:09:44;;;;;;;3.20;3.00;;;18.80;99.90;;;;;;5033826;28;20180;-58
2021/07/11 03:12:11;;;;;;;5.20;3.90;;;18.90;99.90;;;;;;5033215;28;20172;-57
2021/07/11 03:14:38;;;;;;;4.47;3.57;;;18.80;99.90;;;;;;5033898;28;20180;-60
2021/07/11 03:17:04;;;;;;;3.60;3.30;;;18.70;99.90;;;;;;5036336;28;20211;-51
2021/07/11 03:19:34;;;;;;;4.17;3.30;;;18.60;99.90;;;;;;5036715;28;20176;-52
2021/07/11 03:22:00;;;;;;;5.10;3.30;;;18.60;99.90;;;;;;5036468;28;20168;-51
2021/07/11 03:24:29;;;;;;;3.67;3.07;;;18.60;99.90;;;;;;5036581;28;20186;-57
2021/07/11 03:26:56;;;;;;;3.70;3.40;;;18.60;99.90;;;;;;5036545;28;20199;-58
2021/07/11 03:29:36;;;;;;;3.90;3.50;;;18.60;99.90;;;;;;5036674;28;20187;-58
2021/07/11 03:32:02;;;;;;;4.00;3.60;;;18.60;99.90;;;;;;5036327;28;20211;-60
2021/07/11 03:34:30;;;;;;;3.70;3.40;;;18.60;99.90;;;;;;5036929;28;20229;-55
2021/07/11 03:36:59;;;;;;;4.10;3.23;;;18.50;99.90;;;;;;5036908;28;20563;-53
2021/07/11 03:39:27;;;;;;;4.03;3.30;;;18.50;99.90;;;;;;5037206;28;20213;-56
2021/07/11 03:41:55;;;;;;;3.40;3.07;;;18.40;99.90;;;;;;5036638;28;20168;-52
2021/07/11 03:44:27;;;;;;;3.40;3.10;;;18.30;99.90;;;;;;5036718;28;20164;-58
2021/07/11 03:46:53;;;;;;;3.50;3.20;;;18.30;99.90;;;;;;5036007;28;20200;-60
2021/07/11 03:49:20;;;;;;;4.67;3.17;;;18.30;99.90;;;;;;5036024;28;20198;-58
2021/07/11 03:51:47;;;;;;;3.40;3.10;;;18.20;99.90;;;;;;5035840;28;20655;-60
2021/07/11 03:54:15;;;;;;;3.67;3.20;;;18.10;99.90;;;;;;5035959;28;20229;-55
2021/07/11 03:56:44;;;;;;;4.07;3.03;;;18.10;99.90;;;;;;5035865;28;20195;-54
2021/07/11 03:59:10;;;;;;;3.17;2.90;;;18.20;99.90;;;;;;5035761;28;20168;-60
2021/07/11 04:01:38;;;;;;;3.40;3.10;;;18.30;99.90;;;;;;5035600;28;20632;-56
2021/07/11 04:04:08;;;;;;;3.30;2.87;;;18.30;99.90;;;;;;5035573;28;20246;-61
2021/07/11 04:06:34;;;;;;;3.00;2.70;;;18.30;99.90;;;;;;5033681;28;20168;-60
2021/07/11 04:09:04;;;;;;;3.60;3.13;;;18.20;99.90;;;;;;5033987;28;20191;-52
2021/07/11 04:11:33;;;;;;;4.03;2.80;;;18.20;99.90;;;;;;5032574;28;20190;-56
2021/07/11 04:13:59;;;;;;;3.40;3.10;;;18.20;99.90;;;;;;5036079;28;20176;-57
2021/07/11 04:16:28;;;;;;;3.10;2.90;;;18.30;99.90;;;;;;5034346;28;20199;-59
2021/07/11 04:18:56;;;;;;;3.60;3.30;;;18.40;99.90;;;;;;5033874;28;20663;-61
2021/07/11 04:21:26;;;;;;;3.23;2.93;;;18.50;99.90;;;;;;5035231;28;20172;-55
2021/07/11 04:23:55;;;;;;;4.63;3.50;;;18.60;99.90;;;;;;5035569;28;20187;-57
2021/07/11 04:26:22;;;;;;;3.23;3.03;;;18.60;99.90;;;;;;5035794;28;20261;-57
2021/07/11 04:28:48;;;;;;;3.33;3.03;;;18.50;99.90;;;;;;5034862;28;20196;-59
2021/07/11 04:31:14;;;;;;;3.60;3.30;;;18.40;99.90;;;;;;5034769;28;20536;-62
2021/07/11 04:33:40;;;;;;;2.90;2.70;;;18.40;99.90;;;;;;5033203;28;20648;-63
2021/07/11 04:36:07;;;;;;;4.13;2.70;;;18.40;99.90;;;;;;5032822;28;20282;-57
2021/07/11 04:38:34;;;;;;;7.37;3.30;;;18.50;99.90;;;;;;5034954;28;20656;-58
2021/07/11 04:41:02;;;;;;;2.73;2.50;;;18.50;99.90;;;;;;5034806;28;20563;-58
2021/07/11 04:43:28;;;;;;;3.70;2.70;;;18.50;99.90;;;;;;5034381;28;20659;-57
2021/07/11 04:45:54;;;;;;;3.87;2.90;;;18.50;99.90;;;;;;5034037;28;20251;-57
2021/07/11 04:48:20;;;;;;;3.33;2.70;;;18.60;99.90;;;;;;5033119;28;20287;-63
2021/07/11 04:50:47;;;;;;;3.13;2.50;;;18.50;99.90;;;;;;5035169;28;20200;-61
2021/07/11 04:53:14;;;;;;;3.27;2.57;;;18.60;99.90;;;;;;5034596;28;20195;-59
2021/07/11 04:55:40;;;;;;;3.27;2.20;;;18.60;99.90;;;;;;5035080;28;20172;-63
2021/07/11 04:58:05;;;;;;;2.60;2.40;;;18.60;99.90;;;;;;5035160;28;20215;-61
2021/07/11 05:00:31;;;;;;;2.87;2.53;;;18.40;99.90;;;;;;5035492;28;20648;-56
2021/07/11 05:02:57;;;;;;;2.73;2.53;;;18.40;99.90;;;;;;5035253;28;20176;-63
2021/07/11 05:05:22;;;;;;;3.03;2.37;;;18.40;99.90;;;;;;5035262;28;20171;-60
2021/07/11 05:07:48;;;;;;;2.50;2.30;;;18.30;99.90;;;;;;5035222;28;20207;-56
2021/07/11 05:10:13;;;;;;;2.70;2.40;;;18.30;99.90;;;;;;5035042;28;20639;-63
2021/07/11 05:12:39;;;;;;;2.63;2.43;;;18.30;99.90;;;;;;5034894;28;20599;-63
2021/07/11 05:15:06;;;;;;;2.33;2.20;;;18.20;99.90;;;;;;5035095;28;20175;-56
2021/07/11 05:17:32;;;;;;;2.60;2.40;;;18.10;99.90;;;;;;5034822;28;20265;-59
2021/07/11 05:19:57;;;;;;;2.27;2.17;;;18.00;99.90;;;;;;5034828;28;20214;-57
2021/07/11 05:22:23;;;;;;;2.50;2.20;;;18.00;99.90;;;;;;5034631;28;20639;-55
2021/07/11 05:24:49;;;;;;;2.33;2.13;;;17.90;99.90;;;;;;5034850;28;20175;-62
2021/07/11 05:27:14;;;;;;;3.93;2.57;;;17.80;99.90;;;;;;5034850;28;20190;-63
2021/07/11 05:29:40;;;;;;;2.53;2.30;;;17.80;99.90;;;;;;5034582;28;20188;-60
2021/07/11 05:32:06;;;;;;;2.37;2.20;;;17.80;99.90;;;;;;5034557;28;20253;-55
2021/07/11 05:34:32;;;;;;;3.07;2.27;;;17.90;99.90;;;;;;5034777;28;20632;-57
2021/07/11 05:36:57;;;;;;;3.00;2.60;;;18.00;99.90;;;;;;5034367;28;20225;-59
2021/07/11 05:39:23;;;;;;;2.97;2.20;;;18.10;99.90;;;;;;5033848;28;20680;-62
2021/07/11 05:41:49;;;;;;;3.00;2.70;;;18.10;99.90;;;;;;5034510;28;20168;-53
2021/07/11 05:44:14;;;;;;;3.57;2.60;;;18.00;99.90;;;;;;5034670;28;20584;-63
2021/07/11 05:46:40;;;;;;;2.93;2.10;;;17.90;99.90;;;;;;5034466;28;20238;-63
2021/07/11 05:49:06;;;;;;;2.60;2.20;;;18.00;99.90;;;;;;5034533;28;20180;-54
2021/07/11 05:51:31;;;;;;;4.17;2.27;;;18.00;99.90;;;;;;5034525;28;20187;-55
2021/07/11 05:53:57;;;;;;;2.13;2.03;;;18.00;99.90;;;;;;5034269;28;20179;-58
2021/07/11 05:56:23;;;;;;;2.63;2.30;;;17.90;99.90;;;;;;5034256;28;20195;-54
2021/07/11 05:58:48;;;;;;;2.03;1.93;;;17.90;99.90;;;;;;5034517;28;20678;-55
2021/07/11 06:01:14;;;;;;;2.43;2.23;;;17.90;99.90;;;;;;5032908;28;20235;-62
2021/07/11 06:03:39;;;;;;;2.50;2.30;;;17.90;99.90;;;;;;5034294;28;20179;-62
2021/07/11 06:06:06;;;;;;;3.23;1.90;;;18.00;99.90;;;;;;5034239;28;20253;-61
2021/07/11 06:08:31;;;;;;;4.83;2.07;;;18.10;99.90;;;;;;5034095;28;20199;-57
2021/07/11 06:10:57;;;;;;;2.00;1.90;;;18.20;99.90;;;;;;5032699;28;20214;-56
2021/07/11 06:13:23;;;;;;;2.93;2.00;;;18.20;99.90;;;;;;5034098;28;20272;-61
2021/07/11 06:15:49;;;;;;;1.90;1.80;;;18.20;99.90;;;;;;5034077;28;20181;-57
2021/07/11 06:18:15;;;;;;;2.67;2.13;;;18.10;99.90;;;;;;5033807;28;20265;-61
2021/07/11 06:20:41;;;;;;;2.20;1.90;;;18.00;99.90;;;;;;5034132;28;20251;-61
2021/07/11 06:23:07;;;;;;;2.00;1.90;;;18.10;99.90;;;;;;5033945;28;20245;-61
2021/07/11 06:25:33;;;;;;;2.03;1.93;;;18.10;99.90;;;;;;5033943;28;20529;-54
2021/07/11 06:27:59;;;;;;;2.67;2.10;;;18.20;99.90;;;;;;5034284;28;20207;-61
2021/07/11 06:30:25;;;;;;;3.13;2.23;;;18.10;99.90;;;;;;5033943;28;20176;-60
2021/07/11 06:32:50;;;;;;;2.10;1.90;;;18.20;99.90;;;;;;5032535;28;20182;-63
2021/07/11 06:35:21;;;;;;;4.07;2.40;;;18.20;99.90;;;;;;5033665;28;20206;-60
2021/07/11 06:37:47;;;;;;;2.83;2.10;;;18.20;99.90;;;;;;5033640;28;20204;-62
2021/07/11 06:40:14;;;;;;;2.20;2.10;;;18.20;99.90;;;;;;5034111;28;20234;-58
2021/07/11 06:42:41;;;;;;;2.97;2.20;;;18.20;99.90;;;;;;5033603;28;20171;-62
2021/07/11 06:45:08;;;;;;;2.80;2.30;;;18.20;99.90;;;;;;5033725;28;20545;-63
2021/07/11 06:47:33;;;;;;;2.77;2.20;;;18.20;99.90;;;;;;5033670;28;20191;-54
2021/07/11 06:49:59;;;;;;;2.60;2.13;;;18.10;99.90;;;;;;5033597;28;20183;-55
2021/07/11 06:52:25;;;;;;;2.37;2.00;;;18.10;99.90;;;;;;5037035;28;20172;-63
2021/07/11 06:54:51;;;;;;;3.40;2.40;;;18.00;99.90;;;;;;5037826;28;20184;-60
2021/07/11 06:57:20;;;;;;;2.70;1.77;;;17.90;99.90;;;;;;5037484;28;20211;-60
2021/07/11 06:59:46;;;;;;;2.30;2.10;;;17.80;99.90;;;;;;5037677;28;20662;-58
2021/07/11 07:02:11;;;;;;;2.27;2.00;;;17.80;99.90;;;;;;5037502;28;20179;-62
2021/07/11 07:04:37;;;;;;;2.93;2.40;;;17.70;99.90;;;;;;5037361;28;20183;-59
2021/07/11 07:07:03;;;;;;;2.40;2.20;;;17.70;99.90;;;;;;5037336;28;20203;-58
2021/07/11 07:09:28;;;;;;;2.93;2.43;;;17.70;99.90;;;;;;5037264;28;20589;-63
2021/07/11 07:11:54;;;;;;;2.17;1.90;;;17.60;99.90;;;;;;5037263;28;20183;-62
2021/07/11 07:14:19;;;;;;;2.50;2.30;;;17.60;99.90;;;;;;5037476;28;20187;-58
2021/07/11 07:16:45;;;;;;;2.30;2.10;;;17.70;99.90;;;;;;5037163;28;20289;-54
2021/07/11 07:19:10;;;;;;;2.30;2.10;;;17.70;99.90;;;;;;5037145;28;20222;-58
2021/07/11 07:21:36;;;;;;;2.67;2.10;;;17.60;99.90;;;;;;5037236;28;20176;-63
2021/07/11 07:24:02;;;;;;;2.30;2.10;;;17.70;99.90;;;;;;5037364;28;20175;-58
2021/07/11 07:26:28;;;;;;;2.23;2.03;;;17.90;99.90;;;;;;5037246;28;20208;-63
2021/07/11 07:28:53;;;;;;;2.13;2.03;;;18.00;99.90;;;;;;5037058;28;20532;-62
2021/07/11 07:31:19;;;;;;;2.03;1.93;;;18.10;99.90;;;;;;5037062;28;20183;-56
2021/07/11 07:33:44;;;;;;;2.20;2.00;;;18.20;99.90;;;;;;5037123;28;20174;-56
2021/07/11 07:36:10;;;;;;;2.20;2.00;;;18.20;99.90;;;;;;5036802;28;20286;-59
2021/07/11 07:38:35;;;;;;;2.23;2.03;;;18.20;99.90;;;;;;5036771;28;20196;-60
2021/07/11 07:41:01;;;;;;;2.10;2.00;;;18.10;99.90;;;;;;5036719;28;20168;-59
2021/07/11 07:43:26;;;;;;;2.20;2.00;;;18.00;99.90;;;;;;5036879;28;20534;-58
2021/07/11 07:45:52;;;;;;;2.27;2.17;;;18.00;99.90;;;;;;5036840;28;20174;-62
2021/07/11 07:48:17;;;;;;;2.07;1.97;;;17.80;99.90;;;;;;5036583;28;20194;-56
2021/07/11 07:50:43;;;;;;;2.20;1.80;;;17.70;99.90;;;;;;5036885;28;20178;-55
2021/07/11 07:53:08;;;;;;;2.20;2.00;;;17.70;99.90;;;;;;5036477;28;20647;-61
2021/07/11 07:55:34;;;;;;;3.53;2.17;;;17.80;99.90;;;;;;5036708;28;20257;-60
2021/07/11 07:58:00;;;;;;;2.40;2.13;;;17.90;99.90;;;;;;5036531;28;20210;-58
2021/07/11 08:00:27;;;;;;;2.10;2.00;;;17.90;99.90;;;;;;5036615;28;20194;-63
2021/07/11 08:02:52;;;;;;;1.90;1.80;;;17.90;99.90;;;;;;5035151;28;20177;-64
2021/07/11 08:05:19;;;;;;;2.93;2.03;;;18.00;99.90;;;;;;5036342;28;20225;-63
2021/07/11 08:07:45;;;;;;;2.83;2.10;;;17.90;99.90;;;;;;5036314;28;20251;-61
2021/07/11 08:10:14;;;;;;;2.97;1.83;;;17.80;99.90;;;;;;5036311;28;20207;-58
2021/07/11 08:12:40;;;;;;;2.80;1.80;;;17.70;99.90;;;;;;5036042;28;20191;-57
2021/07/11 08:15:07;;;;;;;3.20;2.13;;;17.60;99.90;;;;;;5036287;28;20181;-60
2021/07/11 08:17:33;;;;;;;2.17;1.97;;;17.60;99.90;;;;;;5035889;28;20216;-58
2021/07/11 08:19:59;;;;;;;1.87;1.60;;;17.60;99.90;;;;;;5036133;28;20519;-60
2021/07/11 08:22:25;;;;;;;3.10;1.90;;;17.50;99.90;;;;;;5036086;28;20638;-57
2021/07/11 08:24:50;;;;;;;4.00;1.93;;;17.50;99.90;;;;;;5036185;28;20175;-58
2021/07/11 08:27:16;;;;;;;3.87;2.03;;;17.50;99.90;;;;;;5036018;28;20227;-63
2021/07/11 08:29:41;;;;;;;1.80;1.70;;;17.50;99.90;;;;;;5035998;28;20180;-54
2021/07/11 08:32:07;;;;;;;1.60;1.50;;;17.60;99.90;;;;;;5035814;28;20182;-56
2021/07/11 08:34:33;;;;;;;2.20;1.93;;;17.50;99.90;;;;;;5035820;28;20256;-57
2021/07/11 08:37:00;;;;;;;2.37;1.90;;;17.60;99.90;;;;;;5035639;28;20205;-58
2021/07/11 08:39:27;;;;;;;5.33;2.27;;;17.50;99.90;;;;;;5035845;28;20177;-59
2021/07/11 08:41:56;;;;;;;2.00;1.80;;;17.40;99.90;;;;;;5035488;28;20173;-56
2021/07/11 08:44:22;;;;;;;1.80;1.60;;;17.30;99.90;;;;;;5035750;28;20184;-54
2021/07/11 08:46:48;;;;;;;1.90;1.63;;;17.20;99.90;;;;;;5035498;28;20308;-62
2021/07/11 08:49:13;;;;;;;3.00;1.53;;;17.20;99.90;;;;;;5034838;28;20212;-61
2021/07/11 08:51:39;;;;;;;4.93;2.40;;;17.10;99.90;;;;;;5034107;28;20169;-61
2021/07/11 08:54:05;;;;;;;2.03;1.80;;;17.10;99.90;;;;;;5035297;28;20172;-59
2021/07/11 08:56:31;;;;;;;1.67;1.53;;;17.10;99.90;;;;;;5034474;28;20196;-57
2021/07/11 08:58:57;;;;;;;2.07;1.87;;;17.10;99.90;;;;;;5035118;28;20194;-58
2021/07/11 09:01:25;;;;;;;2.33;1.63;;;17.10;99.90;;;;;;5035689;28;20171;-60
2021/07/11 09:04:08;;;;;;;2.07;1.70;;;17.10;99.90;;;;;;5035492;28;20166;-58
2021/07/11 09:06:49;;;;;;;2.03;1.83;;;17.10;99.90;;;;;;5035185;28;20525;-58
2021/07/11 09:09:25;;;;;;;2.37;1.80;;;17.10;99.90;;;;;;5035154;28;20191;-60
2021/07/11 09:11:54;;;;;;;2.50;1.70;;;17.10;99.90;;;;;;5035018;28;20185;-56
2021/07/11 09:14:25;;;;;;;1.90;1.80;;;17.30;99.90;;;;;;5035089;28;20206;-52
2021/07/11 09:16:52;;;;;;;1.77;1.67;;;17.30;99.90;;;;;;5034882;28;20660;-52
2021/07/11 09:19:29;;;;;;;2.27;1.93;;;17.40;99.90;;;;;;5034962;28;20313;-60
2021/07/11 09:21:59;;;;;;;1.60;1.50;;;17.50;99.90;;;;;;5034828;28;20178;-60
2021/07/11 09:24:25;;;;;;;1.57;1.47;;;17.40;99.90;;;;;;5035002;28;20527;-63
2021/07/11 09:26:54;;;;;;;2.27;1.50;;;17.40;99.90;;;;;;5035003;28;20276;-57
2021/07/11 09:29:30;;;;;;;1.83;1.53;;;17.30;99.90;;;;;;5034837;28;20257;-57
2021/07/11 09:31:56;;;;;;;1.97;1.63;;;17.30;99.90;;;;;;5034656;28;20231;-58
2021/07/11 09:34:24;;;;;;;2.13;1.63;;;17.40;99.90;;;;;;5033765;28;20187;-60
2021/07/11 09:37:12;;;;;;;3.13;1.70;;;17.50;99.90;;;;;;5034667;28;20207;-55
2021/07/11 09:39:49;;;;;;;1.60;1.43;;;17.50;99.90;;;;;;5034776;28;20564;-58
2021/07/11 09:42:30;;;;;;;1.30;1.20;;;17.50;99.90;;;;;;5034386;28;20176;-60
2021/07/11 09:44:57;;;;;;;1.40;1.30;;;17.50;99.90;;;;;;5034886;28;20187;-61
2021/07/11 09:47:25;;;;;;;1.77;1.67;;;17.50;99.90;;;;;;5034576;28;20227;-62
2021/07/11 09:50:00;;;;;;;1.53;1.43;;;17.50;99.90;;;;;;5034455;28;20502;-58
2021/07/11 09:52:27;;;;;;;2.43;1.30;;;17.60;99.90;;;;;;5034158;28;20178;-55
2021/07/11 09:54:57;;;;;;;2.30;1.27;;;17.50;99.90;;;;;;5034467;28;20179;-60
2021/07/11 09:57:50;;;;;;;1.57;1.47;;;17.40;99.90;;;;;;5034343;28;20260;-62
2021/07/11 10:00:21;;;;;;;2.40;1.70;;;17.50;99.90;;;;;;5033860;28;20590;-60
2021/07/11 10:02:49;;;;;;;1.40;1.30;;;17.60;99.90;;;;;;5034238;28;20176;-54
2021/07/11 10:05:16;;;;;;;1.60;1.50;;;17.70;99.90;;;;;;5034285;28;20168;-54
2021/07/11 10:07:42;;;;;;;1.53;1.43;;;17.80;99.90;;;;;;5032827;28;20207;-59
2021/07/11 10:10:10;;;;;;;2.10;1.30;;;18.00;99.90;;;;;;5034016;28;20191;-63
2021/07/11 10:12:37;;;;;;;2.33;1.47;;;18.00;99.90;;;;;;5033928;28;20604;-59
2021/07/11 10:15:05;;;;;;;1.93;1.73;;;18.00;99.90;;;;;;5034120;28;20214;-59
2021/07/11 10:17:32;;;;;;;1.53;1.30;;;18.00;99.90;;;;;;5033759;28;20215;-61
2021/07/11 10:19:59;;;;;;;1.40;1.30;;;18.00;99.90;;;;;;5033906;28;20204;-59
2021/07/11 10:22:25;;;;;;;2.27;1.27;;;17.90;99.90;;;;;;5033984;28;20172;-57
2021/07/11 10:24:51;;;;;;;2.87;1.40;;;18.10;99.90;;;;;;5033814;28;20653;-61
2021/07/11 10:27:27;;;;;;;1.77;1.50;;;18.20;99.90;;;;;;5033467;28;20656;-56
2021/07/11 10:29:55;;;;;;;1.43;1.33;;;18.40;99.90;;;;;;5033786;28;20540;-56
2021/07/11 10:32:23;;;;;;;1.53;1.43;;;18.40;99.90;;;;;;5033696;28;20179;-59
2021/07/11 10:34:49;;;;;;;1.77;1.53;;;18.30;99.90;;;;;;5032752;28;20179;-60
2021/07/11 10:37:20;;;;;;;2.07;1.50;;;18.10;99.90;;;;;;5033786;28;20212;-59
2021/07/11 10:39:46;;;;;;;1.63;1.40;;;18.10;99.90;;;;;;5033782;28;20517;-55
2021/07/11 10:42:12;;;;;;;2.37;1.60;;;18.10;99.90;;;;;;5033492;28;20690;-59
2021/07/11 10:44:39;;;;;;;1.60;1.50;;;18.00;99.90;;;;;;5033755;28;20656;-56
2021/07/11 10:47:05;;;;;;;1.50;1.40;;;18.10;99.90;;;;;;5033796;28;20241;-61
2021/07/11 10:49:48;;;;;;;1.60;1.50;;;18.30;99.90;;;;;;5033875;28;20175;-59
2021/07/11 10:52:25;;;;;;;1.50;1.40;;;18.40;99.90;;;;;;5033517;28;20176;-60
2021/07/11 10:54:54;;;;;;;1.70;1.40;;;18.40;99.90;;;;;;5033768;28;20175;-55
2021/07/11 10:57:34;;;;;;;1.33;1.17;;;18.40;99.90;;;;;;5033631;28;20739;-58
2021/07/11 11:00:12;;;;;;;1.27;1.17;;;18.40;99.90;;;;;;5033451;28;20164;-55
2021/07/11 11:02:39;;;;;;;1.83;1.30;;;18.40;99.90;;;;;;5033327;28;20187;-56
2021/07/11 11:05:12;;;;;;;1.73;1.33;;;18.40;99.90;;;;;;5033724;28;20636;-55
2021/07/11 11:07:50;;;;;;;1.40;1.30;;;18.60;99.90;;;;;;5033475;28;20287;-60
2021/07/11 11:10:26;;;;;;;2.07;1.43;;;18.90;99.90;;;;;;5033429;28;20195;-52
2021/07/11 11:13:17;;;;;;;2.47;1.40;;;18.90;99.90;;;;;;5033179;28;20176;-54
2021/07/11 11:15:57;;;;;;;1.37;1.27;;;18.80;99.90;;;;;;5033270;28;20652;-54
2021/07/11 11:18:33;;;;;;;1.90;1.30;;;18.90;99.90;;;;;;5033311;28;20207;-54
2021/07/11 11:21:01;;;;;;;1.60;1.50;;;19.00;99.90;;;;;;5032288;28;20652;-58
2021/07/11 11:23:32;;;;;;;1.43;1.33;;;19.10;99.90;;;;;;5033425;28;20202;-58
2021/07/11 11:25:57;;;;;;;1.60;1.50;;;19.10;99.90;;;;;;5033406;28;20636;-59
2021/07/11 11:28:27;;;;;;;1.43;1.33;;;19.00;99.90;;;;;;5033349;28;20198;-54
2021/07/11 11:31:03;;;;;;;1.40;1.30;;;19.00;99.90;;;;;;5033236;28;20183;-53
2021/07/11 11:33:28;;;;;;;1.50;1.40;;;18.90;99.90;;;;;;5033278;28;20528;-59
2021/07/11 11:35:54;;;;;;;2.70;1.40;;;19.00;99.90;;;;;;5033332;28;20167;-57
2021/07/11 11:38:19;;;;;;;1.10;1.10;;;19.00;99.90;;;;;;5036182;28;20606;-52
2021/07/11 11:40:45;;;;;;;1.50;1.40;;;19.00;99.90;;;;;;5036931;28;20168;-60
2021/07/11 11:43:16;;;;;;;1.40;1.30;;;19.10;99.90;;;;;;5036757;28;20566;-60
2021/07/11 11:45:42;;;;;;;1.30;1.20;;;19.20;99.90;;;;;;5036975;28;20164;-62
2021/07/11 11:48:11;;;;;;;2.30;1.10;;;19.20;99.90;;;;;;5036865;28;20548;-60
2021/07/11 11:50:39;;;;;;;1.40;1.30;;;19.20;99.90;;;;;;5036778;28;20184;-58
2021/07/11 11:53:15;;;;;;;1.23;1.13;;;19.20;99.90;;;;;;5036447;28;20169;-57
2021/07/11 11:55:52;;;;;;;1.10;1.00;;;19.30;99.90;;;;;;5036740;28;20520;-61
2021/07/11 11:58:26;;;;;;;1.67;1.30;;;19.30;99.90;;;;;;5036792;28;20596;-58
2021/07/11 12:01:06;;;;;;;0.97;0.97;;;19.50;99.90;;;;;;5036593;28;20168;-60
2021/07/11 12:03:39;;;;;;;1.20;1.10;;;19.70;99.90;;;;;;5036532;28;20682;-55
2021/07/11 12:06:10;;;;;;;1.50;1.40;;;19.80;99.90;;;;;;5036505;28;20565;-58
2021/07/11 12:08:38;;;;;;;1.83;1.30;;;19.80;99.90;;;;;;5036234;28;20266;-59
2021/07/11 12:11:06;;;;;;;1.20;1.10;;;19.90;99.90;;;;;;5036136;28;20176;-56
2021/07/11 12:13:32;;;;;;;1.33;1.10;;;19.70;99.90;;;;;;5036378;28;20501;-54
2021/07/11 12:16:09;;;;;;;1.37;0.97;;;19.70;99.90;;;;;;5036262;28;20671;-58
2021/07/11 12:18:45;;;;;;;1.27;1.17;;;19.50;99.90;;;;;;5035989;28;20294;-58
2021/07/11 12:21:12;;;;;;;2.40;1.70;;;19.30;99.90;;;;;;5036009;28;20182;-61
2021/07/11 12:23:38;;;;;;;1.23;1.13;;;19.00;99.90;;;;;;5036212;28;20564;-61
2021/07/11 12:26:06;;;;;;;1.80;1.07;;;19.00;99.90;;;;;;5036046;28;20505;-59
2021/07/11 12:28:32;;;;;;;0.90;0.90;;;19.10;99.90;;;;;;5036074;28;20286;-59
2021/07/11 12:30:58;;;;;;;1.67;1.10;;;19.20;99.90;;;;;;5035896;28;20254;-54
2021/07/11 12:33:30;;;;;;;2.47;1.47;;;19.30;99.90;;;;;;5036014;28;20584;-60
2021/07/11 12:35:59;;;;;;;2.20;1.50;;;19.40;99.90;;;;;;5036090;28;20173;-60
2021/07/11 12:38:36;;;;;;;1.07;1.07;;;19.40;99.90;;;;;;5035764;28;20675;-58
2021/07/11 12:41:04;;;;;;;1.53;1.40;;;19.20;99.90;;;;;;5035931;28;20180;-60
2021/07/11 12:43:31;;;;;;;1.77;1.57;;;19.00;99.90;;;;;;5035871;28;20212;-56
2021/07/11 12:46:09;;;;;;;1.67;1.40;;;19.00;99.90;;;;;;5035762;28;20179;-61
2021/07/11 12:48:41;;;;;;;1.70;1.00;;;19.00;99.90;;;;;;5035136;28;20199;-60
2021/07/11 12:51:17;;;;;;;1.07;1.00;;;19.00;99.90;;;;;;5035371;28;20164;-61
2021/07/11 12:53:44;;;;;;;1.97;1.43;;;19.10;99.90;;;;;;5035656;28;20245;-59